createdAt,value
2023-05-13T00:01:29.378Z,100534.34
2023-05-13T00:06:32.210Z,100533.66
2023-05-13T00:11:34.422Z,100532.63
2023-05-13T00:16:36.028Z,100532.63
2023-05-13T00:21:37.670Z,100533.16
2023-05-13T00:26:39.255Z,100531.81
2023-05-13T00:31:40.961Z,100536.66
2023-05-13T00:36:43.599Z,100528.91
2023-05-13T00:41:45.356Z,100531.59
2023-05-13T00:46:47.085Z,100526.56
2023-05-13T00:51:48.745Z,100528.19
2023-05-13T00:56:54.377Z,100519.28
2023-05-13T01:02:14.165Z,100524.84
2023-05-13T01:07:24.437Z,100525.50
2023-05-13T01:12:32.598Z,100533.25
2023-05-13T01:17:46.420Z,100549.31
2023-05-13T01:22:48.237Z,100552.50
2023-05-13T01:27:50.815Z,100551.47
2023-05-13T01:32:52.964Z,100554.31
2023-05-13T01:37:57.025Z,100564.69
2023-05-13T01:43:00.635Z,100557.94
2023-05-13T01:48:02.470Z,100574.31
2023-05-13T01:53:14.104Z,100567.03
2023-05-13T01:58:16.206Z,100581.72
2023-05-13T02:03:18.698Z,100575.75
2023-05-13T02:08:21.737Z,100577.78
2023-05-13T02:13:23.695Z,100567.28
2023-05-13T02:18:25.532Z,100568.13
2023-05-13T02:23:27.106Z,100569.63
2023-05-13T02:28:30.491Z,100573.41
2023-05-13T02:33:32.213Z,100577.16
2023-05-13T02:38:33.925Z,100574.69
2023-05-13T02:43:36.919Z,100568.22
2023-05-13T02:48:40.903Z,100576.91
2023-05-13T02:53:42.630Z,100577.84
2023-05-13T02:58:44.767Z,100573.47
2023-05-13T03:03:46.509Z,100573.38
2023-05-13T03:08:48.301Z,100579.72
2023-05-13T03:13:49.952Z,100576.47
2023-05-13T03:18:51.630Z,100577.00
2023-05-13T03:23:54.169Z,100584.28
2023-05-13T03:28:55.925Z,100584.47
2023-05-13T03:33:58.069Z,100590.59
2023-05-13T03:38:59.847Z,100589.91
2023-05-13T03:44:01.904Z,100591.88
2023-05-13T03:49:03.807Z,100597.41
2023-05-13T03:54:05.610Z,100601.78
2023-05-13T03:59:07.529Z,100598.78
2023-05-13T04:04:11.081Z,100605.09
2023-05-13T04:09:12.707Z,100599.25
2023-05-13T04:14:14.301Z,100596.13
2023-05-13T04:19:21.291Z,100609.13
2023-05-13T04:24:22.914Z,100601.13
2023-05-13T04:29:24.488Z,100608.34
2023-05-13T04:34:26.337Z,100612.75
2023-05-13T04:39:28.013Z,100616.31
2023-05-13T04:44:29.906Z,100619.50
2023-05-13T04:49:31.666Z,100620.44
2023-05-13T04:54:35.942Z,100618.81
2023-05-13T04:59:37.687Z,100625.28
2023-05-13T05:04:39.476Z,100628.00
2023-05-13T05:09:46.397Z,100639.09
2023-05-13T05:14:48.054Z,100643.59
2023-05-13T05:19:50.589Z,100633.25
2023-05-13T05:24:52.252Z,100651.88
2023-05-13T05:29:53.862Z,100647.09
2023-05-13T05:34:55.607Z,100645.66
2023-05-13T05:39:57.351Z,100648.53
2023-05-13T05:44:59.070Z,100654.56
2023-05-13T05:50:00.730Z,100661.00
2023-05-13T05:55:03.463Z,100657.59
2023-05-13T06:00:06.287Z,100654.56
2023-05-13T06:05:16.649Z,100647.78
2023-05-13T06:10:19.792Z,100646.38
2023-05-13T06:15:21.589Z,100653.75
2023-05-13T06:20:23.700Z,100640.09
2023-05-13T06:25:25.851Z,100649.63
2023-05-13T06:30:27.518Z,100646.69
2023-05-13T06:35:29.218Z,100655.75
2023-05-13T06:40:30.989Z,100645.31
2023-05-13T06:45:32.660Z,100643.59
2023-05-13T06:50:34.673Z,100650.22
2023-05-13T06:55:41.437Z,100642.09
2023-05-13T07:00:43.314Z,100646.63
2023-05-13T07:05:44.975Z,100646.78
2023-05-13T07:10:46.636Z,100637.78
2023-05-13T07:15:48.628Z,100639.41
2023-05-13T07:20:50.493Z,100632.03
2023-05-13T07:25:52.482Z,100628.13
2023-05-13T07:30:54.257Z,100626.91
2023-05-13T07:35:55.993Z,100627.41
2023-05-13T07:40:57.677Z,100629.81
2023-05-13T07:45:59.261Z,100622.72
2023-05-13T07:51:00.929Z,100626.84
2023-05-13T07:56:03.133Z,100618.41
2023-05-13T08:01:05.211Z,100613.97
2023-05-13T08:06:06.896Z,100609.91
2023-05-13T08:11:08.454Z,100605.94
2023-05-13T08:16:10.093Z,100606.59
2023-05-13T08:21:11.737Z,100605.69
2023-05-13T08:26:13.905Z,100611.69
2023-05-13T08:31:15.532Z,100598.44
2023-05-13T08:36:17.365Z,100615.63
2023-05-13T08:41:21.710Z,100609.69
2023-05-13T08:46:25.169Z,100605.47
2023-05-13T08:51:26.942Z,100606.47
2023-05-13T08:56:29.759Z,100607.47
2023-05-13T09:01:31.838Z,100598.41
2023-05-13T09:06:33.771Z,100606.47
2023-05-13T09:11:35.459Z,100604.66
2023-05-13T09:16:37.189Z,100611.88
2023-05-13T09:21:39.543Z,100598.56
2023-05-13T09:26:42.158Z,100608.69
2023-05-13T09:31:45.133Z,100612.03
2023-05-13T09:36:47.981Z,100614.69
2023-05-13T09:41:50.863Z,100611.00
2023-05-13T09:46:53.420Z,100605.31
2023-05-13T09:51:55.077Z,100603.03
2023-05-13T09:57:01.354Z,100611.75
2023-05-13T10:02:05.571Z,100607.56
2023-05-13T10:07:07.793Z,100605.78
2023-05-13T10:12:09.909Z,100608.38
2023-05-13T10:17:11.720Z,100605.88
2023-05-13T10:22:14.342Z,100599.09
2023-05-13T10:27:16.031Z,100602.84
2023-05-13T10:32:17.933Z,100593.47
2023-05-13T10:37:37.661Z,100598.06
2023-05-13T10:42:44.455Z,100593.19
2023-05-13T10:47:50.219Z,100590.72
2023-05-13T10:52:56.038Z,100600.81
2023-05-13T10:58:11.008Z,100589.19
2023-05-13T11:03:30.008Z,100611.09
2023-05-13T11:08:36.848Z,100625.34
2023-05-13T11:13:38.503Z,100637.44
2023-05-13T11:18:40.246Z,100637.16
2023-05-13T11:23:51.766Z,100634.63
2023-05-13T11:28:58.512Z,100639.41
2023-05-13T11:34:07.279Z,100645.41
2023-05-13T11:39:27.659Z,100636.94
2023-05-13T11:44:29.285Z,100633.19
2023-05-13T11:49:42.746Z,100638.63
2023-05-13T11:54:44.351Z,100655.09
2023-05-13T12:00:13.361Z,100654.00
2023-05-13T12:05:14.957Z,100646.66
2023-05-13T12:10:17.430Z,100648.56
2023-05-13T12:15:20.256Z,100659.09
2023-05-13T12:20:23.323Z,100660.88
2023-05-13T12:25:45.412Z,100666.34
2023-05-13T12:30:59.970Z,100671.50
2023-05-13T12:36:26.104Z,100676.31
2023-05-13T12:41:30.722Z,100682.41
2023-05-13T12:46:32.735Z,100678.53
2023-05-13T12:51:34.675Z,100677.22
2023-05-13T12:56:36.440Z,100671.88
2023-05-13T13:01:38.110Z,100676.13
2023-05-13T13:06:39.832Z,100669.88
2023-05-13T13:11:41.629Z,100668.84
2023-05-13T13:16:43.644Z,100675.44
2023-05-13T13:21:45.316Z,100675.19
2023-05-13T13:26:46.921Z,100678.53
2023-05-13T13:31:48.622Z,100674.19
2023-05-13T13:36:50.336Z,100684.22
2023-05-13T13:41:51.961Z,100677.47
2023-05-13T13:46:53.558Z,100672.56
2023-05-13T13:51:56.739Z,100671.94
2023-05-13T13:56:58.827Z,100680.50
2023-05-13T14:02:00.618Z,100677.09
2023-05-13T14:07:02.621Z,100683.13
2023-05-13T14:12:04.490Z,100671.75
2023-05-13T14:17:06.211Z,100678.53
2023-05-13T14:22:07.790Z,100678.28
2023-05-13T14:27:09.430Z,100671.56
2023-05-13T14:32:10.997Z,100673.66
2023-05-13T14:37:12.622Z,100672.22
2023-05-13T14:42:14.246Z,100665.59
2023-05-13T14:47:15.922Z,100665.94
2023-05-13T14:52:17.598Z,100669.44
2023-05-13T14:57:19.290Z,100672.59
2023-05-13T15:02:20.960Z,100663.97
2023-05-13T15:07:22.661Z,100665.09
2023-05-13T15:12:24.868Z,100668.47
2023-05-13T15:17:26.783Z,100664.84
2023-05-13T15:22:28.405Z,100665.84
2023-05-13T15:27:29.972Z,100665.22
2023-05-13T15:32:31.601Z,100681.94
2023-05-13T15:37:33.245Z,100681.28
2023-05-13T15:42:36.759Z,100674.03
2023-05-13T15:47:38.465Z,100671.59
2023-05-13T15:52:40.245Z,100659.03
2023-05-13T15:57:41.847Z,100662.28
2023-05-13T16:02:44.221Z,100663.19
2023-05-13T16:07:46.464Z,100654.06
2023-05-13T16:12:48.490Z,100645.84
2023-05-13T16:17:50.208Z,100640.97
2023-05-13T16:22:51.924Z,100648.25
2023-05-13T16:27:54.843Z,100642.19
2023-05-13T16:32:56.733Z,100641.41
2023-05-13T16:37:58.321Z,100634.88
2023-05-13T16:43:03.248Z,100629.28
2023-05-13T16:48:06.405Z,100615.78
2023-05-13T16:53:08.032Z,100626.97
2023-05-13T16:58:09.591Z,100626.00
2023-05-13T17:03:13.379Z,100625.41
2023-05-13T17:08:17.101Z,100631.53
2023-05-13T17:13:19.690Z,100632.72
2023-05-13T17:18:21.284Z,100623.72
2023-05-13T17:23:22.910Z,100627.09
2023-05-13T17:28:24.709Z,100627.88
2023-05-13T17:33:26.370Z,100622.91
2023-05-13T17:38:27.960Z,100627.81
2023-05-13T17:43:29.592Z,100625.34
2023-05-13T17:48:33.090Z,100632.69
2023-05-13T17:53:35.219Z,100622.88
2023-05-13T17:58:37.032Z,100622.19
2023-05-13T18:03:38.620Z,100620.44
2023-05-13T18:08:40.173Z,100622.94
2023-05-13T18:13:41.711Z,100632.56
2023-05-13T18:18:43.369Z,100634.03
2023-05-13T18:23:46.481Z,100624.25
2023-05-13T18:28:48.089Z,100629.97
2023-05-13T18:33:49.662Z,100623.09
2023-05-13T18:38:51.270Z,100633.50
2023-05-13T18:43:52.888Z,100632.19
2023-05-13T18:48:54.432Z,100632.69
2023-05-13T18:53:56.105Z,100631.72
2023-05-13T18:58:57.968Z,100638.81
2023-05-13T19:03:59.647Z,100637.81
2023-05-13T19:09:01.305Z,100642.84
2023-05-13T19:14:02.960Z,100644.75
2023-05-13T19:19:04.720Z,100656.22
2023-05-13T19:24:06.510Z,100655.56
2023-05-13T19:29:08.244Z,100651.16
2023-05-13T19:34:09.889Z,100651.25
2023-05-13T19:39:11.490Z,100656.41
2023-05-13T19:44:13.039Z,100656.09
2023-05-13T19:49:14.718Z,100660.50
2023-05-13T19:54:16.496Z,100662.91
2023-05-13T19:59:18.158Z,100662.59
2023-05-13T20:04:19.725Z,100668.81
2023-05-13T20:09:21.470Z,100664.13
2023-05-13T20:14:23.239Z,100666.34
2023-05-13T20:19:24.814Z,100659.78
2023-05-13T20:24:26.407Z,100651.69
2023-05-13T20:29:33.787Z,100646.16
2023-05-13T20:34:36.298Z,100655.72
2023-05-13T20:39:37.890Z,100655.25
2023-05-13T20:44:39.656Z,100658.09
2023-05-13T20:49:43.803Z,100658.28
2023-05-13T20:54:45.582Z,100655.25
2023-05-13T20:59:47.220Z,100654.41
2023-05-13T21:04:48.759Z,100653.72
2023-05-13T21:09:50.323Z,100651.88
2023-05-13T21:14:51.910Z,100659.78
2023-05-13T21:19:53.508Z,100655.41
2023-05-13T21:24:55.340Z,100652.88
2023-05-13T21:29:57.160Z,100656.59
2023-05-13T21:34:58.733Z,100658.78
2023-05-13T21:40:00.540Z,100655.91
2023-05-13T21:45:02.827Z,100653.56
2023-05-13T21:50:06.885Z,100644.81
2023-05-13T21:55:08.969Z,100641.44
2023-05-13T22:00:15.119Z,100648.84
2023-05-13T22:05:19.572Z,100657.09
2023-05-13T22:10:21.327Z,100644.31
2023-05-13T22:15:23.099Z,100639.75
2023-05-13T22:20:25.187Z,100642.78
2023-05-13T22:25:27.262Z,100641.59
2023-05-13T22:30:28.984Z,100644.81
2023-05-13T22:35:31.883Z,100637.72
2023-05-13T22:40:33.542Z,100641.09
2023-05-13T22:45:36.758Z,100634.34
2023-05-13T22:50:38.466Z,100632.34
2023-05-13T22:55:40.048Z,100627.28
2023-05-13T23:00:41.675Z,100630.66
2023-05-13T23:05:43.240Z,100624.75
2023-05-13T23:10:44.914Z,100620.56
2023-05-13T23:15:46.618Z,100627.78
2023-05-13T23:20:55.806Z,100617.84
2023-05-13T23:25:57.495Z,100613.13
2023-05-13T23:30:59.223Z,100605.38
2023-05-13T23:36:00.842Z,100602.84
2023-05-13T23:41:02.472Z,100593.09
2023-05-13T23:46:04.157Z,100592.78
2023-05-13T23:51:06.168Z,100583.84
2023-05-13T23:56:08.175Z,100578.78
